Time;durP1;ratioP1;P1;durP2;ratioP2;P2;SDS_P1;SDS_P2;PMS_P1;PMS_P2;Temp;Humidity;BMP_temperature;BMP_pressure;BME280_temperature;BME280_humidity;BME280_pressure;Samples;Min_cycle;Max_cycle;Signal;HPM_P1;HPM_P2
2023/03/14 00:00:34;;;;;;;7.78;3.22;;;-0.70;99.90;;;;;;5038334;28;20049;-78
2023/03/14 00:03:02;;;;;;;5.78;3.28;;;-0.70;99.90;;;;;;5034243;28;20053;-78
2023/03/14 00:05:29;;;;;;;4.75;2.67;;;-0.70;99.90;;;;;;5038289;28;20064;-78
2023/03/14 00:07:59;;;;;;;4.78;3.13;;;-0.70;99.90;;;;;;5047105;28;20591;-78
2023/03/14 00:10:26;;;;;;;3.80;3.38;;;-0.70;99.90;;;;;;5052216;28;20143;-77
2023/03/14 00:12:54;;;;;;;6.20;2.85;;;-0.60;99.90;;;;;;5053572;28;20045;-78
2023/03/14 00:15:21;;;;;;;5.03;3.45;;;-0.50;99.90;;;;;;5051944;28;20081;-78
2023/03/14 00:17:49;;;;;;;5.63;3.00;;;-0.50;99.90;;;;;;5042519;28;20053;-78
2023/03/14 00:20:17;;;;;;;10.55;4.53;;;-0.50;99.90;;;;;;5053645;28;20111;-78
2023/03/14 00:22:44;;;;;;;6.82;3.60;;;-0.40;99.90;;;;;;5053701;28;20056;-78
2023/03/14 00:25:13;;;;;;;3.80;3.08;;;-0.40;99.90;;;;;;5052841;28;20147;-78
2023/03/14 00:27:41;;;;;;;5.38;3.40;;;-0.40;99.90;;;;;;5038230;28;20055;-78
2023/03/14 00:30:10;;;;;;;2.60;2.35;;;-0.40;99.90;;;;;;5032221;28;20091;-78
2023/03/14 00:32:38;;;;;;;6.05;3.22;;;-0.30;99.90;;;;;;5050431;28;20155;-78
2023/03/14 00:35:07;;;;;;;7.15;3.53;;;-0.30;99.90;;;;;;5037508;28;20049;-77
2023/03/14 00:37:34;;;;;;;4.50;3.13;;;-0.30;99.90;;;;;;5053553;28;20045;-78
2023/03/14 00:40:06;;;;;;;4.22;2.80;;;-0.30;99.90;;;;;;5068113;28;20053;-76
2023/03/14 00:42:35;;;;;;;3.75;2.90;;;-0.20;99.90;;;;;;5052863;28;20048;-77
2023/03/14 00:45:03;;;;;;;6.50;3.13;;;-0.20;99.90;;;;;;5045292;28;20079;-77
2023/03/14 00:47:33;;;;;;;5.25;3.40;;;-0.20;99.90;;;;;;5048437;28;20053;-77
2023/03/14 00:50:01;;;;;;;3.40;3.10;;;-0.10;99.90;;;;;;5015191;28;20104;-77
2023/03/14 00:52:30;;;;;;;3.85;2.67;;;-0.10;99.90;;;;;;5056064;28;20048;-78
2023/03/14 00:54:57;;;;;;;2.80;2.53;;;-0.10;99.90;;;;;;5048562;28;20194;-78
2023/03/14 00:57:25;;;;;;;3.83;3.13;;;0.00;99.90;;;;;;5051335;28;20045;-78
2023/03/14 00:59:54;;;;;;;3.33;2.95;;;-0.10;99.90;;;;;;5053259;28;20060;-78
2023/03/14 01:02:22;;;;;;;7.30;3.83;;;-0.10;99.90;;;;;;5038641;28;20044;-77
2023/03/14 01:04:50;;;;;;;4.93;3.45;;;-0.20;99.90;;;;;;5031605;28;20049;-77
2023/03/14 01:07:18;;;;;;;5.10;2.95;;;-0.20;99.90;;;;;;5033210;28;20053;-77
2023/03/14 01:09:45;;;;;;;4.25;3.08;;;-0.20;99.90;;;;;;5032063;28;20150;-77
2023/03/14 01:12:13;;;;;;;6.65;3.35;;;-0.10;99.90;;;;;;5044874;28;20140;-77
2023/03/14 01:14:43;;;;;;;3.53;2.80;;;-0.10;99.90;;;;;;5039417;28;20610;-77
2023/03/14 01:17:12;;;;;;;8.23;3.05;;;-0.10;99.90;;;;;;5045375;28;20087;-77
2023/03/14 01:19:39;;;;;;;7.15;3.40;;;-0.10;99.90;;;;;;5045095;28;20095;-77
2023/03/14 01:22:06;;;;;;;6.63;3.38;;;-0.10;99.90;;;;;;5032016;28;20402;-76
2023/03/14 01:24:34;;;;;;;5.15;3.20;;;-0.10;99.90;;;;;;5063672;28;20136;-77
2023/03/14 01:27:01;;;;;;;9.20;3.50;;;-0.10;99.90;;;;;;5041963;28;20103;-76
2023/03/14 01:29:31;;;;;;;5.05;2.92;;;-0.10;99.90;;;;;;5041755;28;20040;-77
2023/03/14 01:31:58;;;;;;;6.90;3.90;;;-0.10;99.90;;;;;;5048914;28;20084;-76
2023/03/14 01:34:27;;;;;;;6.50;2.85;;;-0.10;99.90;;;;;;5050635;28;20604;-77
2023/03/14 01:36:55;;;;;;;5.43;3.17;;;-0.10;99.90;;;;;;5034337;28;20041;-77
2023/03/14 01:39:22;;;;;;;4.82;2.30;;;0.00;99.90;;;;;;5045446;28;20045;-76
2023/03/14 01:41:50;;;;;;;4.93;2.28;;;0.00;99.90;;;;;;5043769;28;20514;-77
2023/03/14 01:44:17;;;;;;;2.80;2.55;;;0.00;99.90;;;;;;5037239;28;20063;-76
2023/03/14 01:46:46;;;;;;;5.93;2.67;;;0.10;99.90;;;;;;5041725;28;20579;-78
2023/03/14 01:49:24;;;;;;;2.80;2.22;;;0.10;99.90;;;;;;5031617;28;20048;-77
2023/03/14 01:52:08;;;;;;;3.05;2.20;;;0.10;99.90;;;;;;5050154;28;20139;-77
2023/03/14 01:54:40;;;;;;;3.10;2.20;;;0.10;99.90;;;;;;5034311;28;20067;-77
2023/03/14 01:57:13;;;;;;;1.70;1.60;;;0.10;99.90;;;;;;5035681;28;20048;-76
2023/03/14 01:59:44;;;;;;;1.50;1.40;;;0.10;99.90;;;;;;5026574;28;20080;-77
2023/03/14 02:02:14;;;;;;;2.05;1.70;;;0.10;99.90;;;;;;5033576;28;20489;-76
2023/03/14 02:04:42;;;;;;;2.65;1.75;;;0.20;99.90;;;;;;5039229;28;20055;-77
2023/03/14 02:07:17;;;;;;;4.13;1.55;;;0.20;99.90;;;;;;5034854;28;20571;-78
2023/03/14 02:09:55;;;;;;;;;;;0.20;99.90;;;;;;5032472;28;20061;-77
2023/03/14 02:12:27;;;;;;;1.45;1.35;;;0.30;99.90;;;;;;5044828;28;19979;-77
2023/03/14 02:15:10;;;;;;;;;;;0.20;99.90;;;;;;5062568;28;20115;-77
2023/03/14 02:18:14;;;;;;;1.10;1.00;;;0.20;99.90;;;;;;5028969;28;19925;-77
2023/03/14 02:20:56;;;;;;;1.73;1.63;;;0.20;99.90;;;;;;5032990;28;20295;-77
2023/03/14 02:23:37;;;;;;;2.53;1.70;;;0.20;99.90;;;;;;5024345;28;20052;-78
2023/03/14 02:26:11;;;;;;;1.30;1.20;;;0.20;99.90;;;;;;5049140;28;20055;-78
2023/03/14 02:28:41;;;;;;;5.25;2.33;;;0.30;99.90;;;;;;5049905;28;20044;-78
2023/03/14 02:31:09;;;;;;;1.95;1.20;;;0.30;99.90;;;;;;5032020;28;20045;-77
2023/03/14 02:33:38;;;;;;;2.15;1.27;;;0.30;99.90;;;;;;5039415;28;20128;-77
2023/03/14 02:36:10;;;;;;;1.33;1.13;;;0.30;99.90;;;;;;5051713;28;20061;-78
2023/03/14 02:38:44;;;;;;;1.50;1.40;;;0.30;99.90;;;;;;5050151;28;20045;-77
2023/03/14 02:41:12;;;;;;;2.78;1.20;;;0.30;99.90;;;;;;5024081;28;20050;-77
2023/03/14 02:43:46;;;;;;;2.15;1.40;;;0.30;99.90;;;;;;5034940;28;20472;-78
2023/03/14 02:46:19;;;;;;;1.35;1.25;;;0.40;99.90;;;;;;5038705;28;20179;-77
2023/03/14 02:48:49;;;;;;;1.63;1.40;;;0.40;99.90;;;;;;5037172;28;20053;-77
2023/03/14 02:51:20;;;;;;;2.53;1.48;;;0.50;99.90;;;;;;5045779;28;20057;-77
2023/03/14 02:53:49;;;;;;;2.17;1.63;;;0.50;99.90;;;;;;5046697;28;20053;-78
2023/03/14 02:56:16;;;;;;;1.42;1.33;;;0.50;99.90;;;;;;5048967;28;20056;-78
2023/03/14 02:58:46;;;;;;;2.67;1.60;;;0.50;99.90;;;;;;5043724;28;20095;-78
2023/03/14 03:01:40;;;;;;;1.58;1.40;;;0.50;99.90;;;;;;5036378;28;20054;-77
2023/03/14 03:04:09;;;;;;;3.35;1.40;;;0.50;99.90;;;;;;5031074;28;20100;-77
2023/03/14 03:06:36;;;;;;;2.00;1.90;;;0.60;99.90;;;;;;5048211;28;20131;-77
2023/03/14 03:09:04;;;;;;;1.70;1.60;;;0.60;99.90;;;;;;5063784;28;20045;-78
2023/03/14 03:11:32;;;;;;;2.33;1.85;;;0.70;99.90;;;;;;5034691;28;20135;-78
2023/03/14 03:14:02;;;;;;;3.90;1.65;;;0.70;99.90;;;;;;5029916;28;20413;-78
2023/03/14 03:16:30;;;;;;;2.63;1.85;;;0.70;99.90;;;;;;5044338;28;20099;-77
2023/03/14 03:18:58;;;;;;;3.30;1.40;;;0.80;99.90;;;;;;5053045;28;20071;-79
2023/03/14 03:21:25;;;;;;;2.03;1.73;;;0.80;99.90;;;;;;5046490;28;20041;-79
2023/03/14 03:23:52;;;;;;;2.88;1.80;;;0.80;99.90;;;;;;5064232;28;20041;-79
2023/03/14 03:26:20;;;;;;;2.13;1.50;;;0.90;99.90;;;;;;5030847;28;20041;-78
2023/03/14 03:28:47;;;;;;;1.90;1.70;;;1.00;99.90;;;;;;5038738;28;20056;-79
2023/03/14 03:31:19;;;;;;;2.15;1.85;;;1.00;99.90;;;;;;5020644;28;20473;-78
2023/03/14 03:33:46;;;;;;;3.40;1.80;;;1.00;99.90;;;;;;5012228;28;20053;-78
2023/03/14 03:36:13;;;;;;;1.92;1.63;;;1.10;99.90;;;;;;5045555;28;20564;-78
2023/03/14 03:38:41;;;;;;;4.68;1.95;;;1.10;99.90;;;;;;5040765;28;20057;-77
2023/03/14 03:41:12;;;;;;;1.50;1.40;;;1.10;99.90;;;;;;5033233;28;20050;-78
2023/03/14 03:43:40;;;;;;;1.95;1.75;;;1.10;99.90;;;;;;5041626;28;20112;-78
2023/03/14 03:46:10;;;;;;;1.73;1.50;;;1.20;99.90;;;;;;5041953;28;20517;-79
2023/03/14 03:48:39;;;;;;;1.83;1.73;;;1.20;99.90;;;;;;5046354;28;20147;-78
2023/03/14 03:51:08;;;;;;;4.78;2.25;;;1.30;99.90;;;;;;5049083;28;20049;-78
2023/03/14 03:53:40;;;;;;;4.13;2.50;;;1.30;99.90;;;;;;5045032;28;20053;-78
2023/03/14 03:56:12;;;;;;;1.50;1.40;;;1.40;99.90;;;;;;5038791;28;20041;-79
2023/03/14 03:58:41;;;;;;;4.60;1.80;;;1.40;99.90;;;;;;5046231;28;20051;-79
2023/03/14 04:01:11;;;;;;;4.30;1.77;;;1.50;99.90;;;;;;5031484;28;20417;-77
2023/03/14 04:03:41;;;;;;;2.97;1.80;;;1.60;99.90;;;;;;5036995;28;20056;-78
2023/03/14 04:06:11;;;;;;;6.72;1.90;;;1.60;99.90;;;;;;5042262;28;20072;-78
2023/03/14 04:08:43;;;;;;;2.05;1.80;;;1.70;99.90;;;;;;5031458;28;20060;-78
2023/03/14 04:11:17;;;;;;;2.58;1.70;;;1.80;99.90;;;;;;5040275;28;20095;-78
2023/03/14 04:14:15;;;;;;;5.20;1.80;;;1.80;99.90;;;;;;5049260;28;20067;-80
2023/03/14 04:16:43;;;;;;;4.97;2.63;;;1.90;99.90;;;;;;5041865;28;20052;-79
2023/03/14 04:19:16;;;;;;;3.92;2.83;;;2.00;99.90;;;;;;5060127;28;20037;-83
2023/03/14 04:21:46;;;;;;;1.52;1.42;;;2.00;99.90;;;;;;5047224;28;20049;-87
2023/03/14 04:24:16;;;;;;;1.95;1.77;;;2.10;99.90;;;;;;5053303;28;20056;-85
2023/03/14 04:26:48;;;;;;;4.97;1.48;;;2.10;99.90;;;;;;5033666;28;20425;-84
2023/03/14 04:29:16;;;;;;;3.58;2.53;;;2.20;99.90;;;;;;5054951;28;20082;-83
2023/03/14 04:31:45;;;;;;;1.50;1.40;;;2.20;99.90;;;;;;5043436;28;20052;-83
2023/03/14 04:34:14;;;;;;;3.45;1.40;;;2.30;99.90;;;;;;5033805;28;20056;-82
2023/03/14 04:36:49;;;;;;;2.78;1.70;;;2.30;99.90;;;;;;5048287;28;20045;-82
2023/03/14 04:39:22;;;;;;;1.60;1.30;;;2.40;99.90;;;;;;5032282;28;20545;-82
2023/03/14 04:41:57;;;;;;;2.03;1.60;;;2.40;99.90;;;;;;5045043;28;20037;-82
2023/03/14 04:44:33;;;;;;;5.88;2.70;;;2.50;99.90;;;;;;5033768;28;20144;-82
2023/03/14 04:47:01;;;;;;;4.95;1.80;;;2.50;99.90;;;;;;5042792;28;20064;-77
2023/03/14 04:49:28;;;;;;;3.13;2.03;;;2.50;99.90;;;;;;5044509;28;20072;-77
2023/03/14 04:52:12;;;;;;;2.20;1.73;;;2.50;99.90;;;;;;5028670;28;20049;-81
2023/03/14 04:54:54;;;;;;;3.75;1.70;;;2.60;99.90;;;;;;5035631;28;20079;-80
2023/03/14 04:57:46;;;;;;;5.85;2.10;;;2.60;99.90;;;;;;5045701;28;20045;-79
2023/03/14 05:00:17;;;;;;;3.88;1.52;;;2.60;99.90;;;;;;5057716;28;20037;-77
2023/03/14 05:03:08;;;;;;;1.80;1.20;;;2.60;99.90;;;;;;5037320;28;20052;-75
2023/03/14 05:05:57;;;;;;;2.35;1.88;;;2.70;99.90;;;;;;5039347;28;20490;-77
2023/03/14 05:09:07;;;;;;;1.75;1.20;;;2.70;99.90;;;;;;5047008;28;20428;-74
2023/03/14 05:12:02;;;;;;;1.30;1.20;;;2.80;99.90;;;;;;5011582;28;20048;-74
2023/03/14 05:15:07;;;;;;;4.00;1.40;;;2.80;99.90;;;;;;4968499;28;20137;-75
2023/03/14 05:18:13;;;;;;;3.72;1.65;;;2.80;99.90;;;;;;4999807;28;20042;-76
2023/03/14 05:21:05;;;;;;;2.45;1.42;;;2.90;99.90;;;;;;4991797;28;20068;-77
2023/03/14 05:23:51;;;;;;;1.50;1.30;;;3.00;99.90;;;;;;5044850;28;20413;-76
2023/03/14 05:26:34;;;;;;;2.05;0.95;;;3.10;99.90;;;;;;5034032;28;20088;-80
2023/03/14 05:29:22;;;;;;;4.88;1.25;;;3.20;99.90;;;;;;5042501;28;20053;-79
2023/03/14 05:32:19;;;;;;;6.05;1.40;;;3.10;99.90;;;;;;5048186;28;20060;-80
2023/03/14 05:35:07;;;;;;;3.90;1.48;;;3.20;99.90;;;;;;5053579;28;20086;-81
2023/03/14 05:37:53;;;;;;;6.35;1.30;;;3.20;99.90;;;;;;5050612;28;20056;-80
2023/03/14 05:40:23;;;;;;;3.20;1.23;;;3.30;99.90;;;;;;5050996;28;20045;-80
2023/03/14 05:43:08;;;;;;;4.20;1.58;;;3.30;99.90;;;;;;5061004;28;20144;-80
2023/03/14 05:45:55;;;;;;;1.63;1.45;;;3.40;99.90;;;;;;5044325;28;20200;-76
2023/03/14 05:48:32;;;;;;;5.65;1.42;;;3.50;99.90;;;;;;5051271;28;20135;-76
2023/03/14 05:51:31;;;;;;;1.40;1.20;;;3.60;99.90;;;;;;5073646;28;20195;-76
2023/03/14 05:54:07;;;;;;;0.77;0.77;;;3.60;99.90;;;;;;5024223;28;20056;-76
2023/03/14 05:57:01;;;;;;;2.17;1.20;;;3.70;99.90;;;;;;5052079;28;20425;-76
2023/03/14 05:59:48;;;;;;;1.38;1.27;;;3.70;99.90;;;;;;5041431;28;20056;-76
2023/03/14 06:02:40;;;;;;;6.47;1.50;;;3.80;99.90;;;;;;5046964;28;20052;-76
2023/03/14 06:05:18;;;;;;;3.40;1.60;;;3.80;99.90;;;;;;5044996;28;20065;-75
2023/03/14 06:07:47;;;;;;;3.10;1.13;;;3.80;99.90;;;;;;5050718;28;20502;-75
2023/03/14 06:10:14;;;;;;;2.20;1.33;;;3.90;99.90;;;;;;5031532;28;20045;-79
2023/03/14 06:12:42;;;;;;;3.42;1.70;;;4.00;99.90;;;;;;5045060;28;20053;-79
2023/03/14 06:15:12;;;;;;;2.45;1.92;;;4.10;99.90;;;;;;5035634;28;20076;-74
2023/03/14 06:17:40;;;;;;;2.55;1.50;;;4.10;99.90;;;;;;5033175;28;20057;-75
2023/03/14 06:20:12;;;;;;;3.83;1.83;;;4.10;99.90;;;;;;5049400;28;20049;-74
2023/03/14 06:22:41;;;;;;;4.30;1.88;;;4.20;99.90;;;;;;5063168;28;20406;-75
2023/03/14 06:25:10;;;;;;;10.75;2.17;;;4.20;99.90;;;;;;5045062;28;20049;-75
2023/03/14 06:27:38;;;;;;;3.67;1.85;;;4.30;99.90;;;;;;5044801;28;20048;-76
2023/03/14 06:30:08;;;;;;;3.97;1.88;;;4.30;99.90;;;;;;5049487;28;20086;-75
2023/03/14 06:32:37;;;;;;;5.50;2.22;;;4.40;99.90;;;;;;5050003;28;20051;-75
2023/03/14 06:35:10;;;;;;;3.47;1.90;;;4.50;99.90;;;;;;5048777;28;20040;-76
2023/03/14 06:37:41;;;;;;;2.30;1.90;;;4.50;99.90;;;;;;5029609;28;20052;-76
2023/03/14 06:40:12;;;;;;;7.70;2.30;;;4.60;99.90;;;;;;5029858;28;20049;-76
2023/03/14 06:42:56;;;;;;;3.50;2.47;;;4.70;99.90;;;;;;5029439;28;20045;-76
2023/03/14 06:45:25;;;;;;;3.58;2.20;;;4.70;99.90;;;;;;5051538;28;20041;-76
2023/03/14 06:47:55;;;;;;;2.33;1.70;;;4.70;99.90;;;;;;5049159;28;20060;-75
2023/03/14 06:50:27;;;;;;;3.30;1.80;;;4.80;99.90;;;;;;5048768;28;20049;-76
2023/03/14 06:53:00;;;;;;;3.35;2.53;;;4.90;99.90;;;;;;5048798;28;20049;-76
2023/03/14 06:55:29;;;;;;;3.97;1.85;;;5.00;99.90;;;;;;5042702;28;20052;-75
2023/03/14 06:57:56;;;;;;;3.22;2.67;;;5.00;99.90;;;;;;5050781;28;20045;-81
2023/03/14 07:00:25;;;;;;;8.63;2.40;;;5.00;99.90;;;;;;5049689;28;20067;-81
2023/03/14 07:02:57;;;;;;;2.05;1.83;;;5.00;99.90;;;;;;5047947;28;20517;-80
2023/03/14 07:05:31;;;;;;;3.70;1.98;;;5.00;99.90;;;;;;5064197;28;20501;-79
2023/03/14 07:07:58;;;;;;;2.05;1.90;;;5.10;99.90;;;;;;5050294;28;20071;-80
2023/03/14 07:10:26;;;;;;;2.38;2.17;;;5.10;99.90;;;;;;5050355;28;20155;-80
2023/03/14 07:12:54;;;;;;;2.97;2.05;;;5.20;99.90;;;;;;5045754;28;20087;-81
2023/03/14 07:15:25;;;;;;;2.10;1.80;;;5.20;99.90;;;;;;5049933;28;20045;-80
2023/03/14 07:17:59;;;;;;;;;;;5.30;99.90;;;;;;5049098;28;20095;-80
2023/03/14 07:20:28;;;;;;;3.20;2.58;;;5.30;99.90;;;;;;5037239;28;20352;-81
2023/03/14 07:22:56;;;;;;;4.50;2.30;;;5.30;99.90;;;;;;5042349;28;20088;-81
2023/03/14 07:25:45;;;;;;;3.72;2.50;;;5.40;99.90;;;;;;5029156;28;20137;-81
2023/03/14 07:28:14;;;;;;;4.40;2.75;;;5.50;99.90;;;;;;5031588;28;20049;-81
2023/03/14 07:30:44;;;;;;;4.18;2.45;;;5.40;99.90;;;;;;5034047;28;20056;-81
2023/03/14 07:33:19;;;;;;;2.60;2.33;;;5.50;99.90;;;;;;5041798;28;20057;-81
2023/03/14 07:35:48;;;;;;;4.85;2.67;;;5.40;99.90;;;;;;5042380;28;20053;-82
2023/03/14 07:38:16;;;;;;;4.43;3.22;;;5.40;99.90;;;;;;5037274;28;20052;-79
2023/03/14 07:41:01;;;;;;;3.97;3.08;;;5.50;99.90;;;;;;5042448;28;20424;-81
2023/03/14 07:43:30;;;;;;;4.20;2.97;;;5.60;99.90;;;;;;5045959;28;20045;-85
2023/03/14 07:46:01;;;;;;;5.25;3.45;;;5.60;99.90;;;;;;5050428;28;20044;-84
2023/03/14 07:48:30;;;;;;;4.38;2.92;;;5.60;99.90;;;;;;5048490;28;20057;-82
2023/03/14 07:50:58;;;;;;;4.25;3.17;;;5.60;99.90;;;;;;5044312;28;20143;-82
2023/03/14 07:53:26;;;;;;;4.82;3.25;;;5.60;99.90;;;;;;5051953;28;20053;-86
2023/03/14 07:55:55;;;;;;;5.68;3.10;;;5.70;99.90;;;;;;5039799;28;20061;-79
2023/03/14 07:58:23;;;;;;;9.13;3.78;;;5.80;99.90;;;;;;5038582;28;20050;-81
2023/03/14 08:00:51;;;;;;;9.10;4.05;;;5.80;99.90;;;;;;5039489;28;20045;-83
2023/03/14 08:03:18;;;;;;;4.82;3.45;;;5.80;99.90;;;;;;5050620;28;20060;-85
2023/03/14 08:05:51;;;;;;;6.65;4.10;;;5.90;99.90;;;;;;5060437;28;20121;-81
2023/03/14 08:08:19;;;;;;;5.28;3.72;;;6.00;99.90;;;;;;5035393;28;20058;-74
2023/03/14 08:10:47;;;;;;;7.18;4.57;;;6.00;99.90;;;;;;5050213;28;20543;-74
2023/03/14 08:16:48;;;;;;;7.93;4.05;;;6.00;99.90;;;;;;5004610;28;20053;-75
2023/03/14 08:19:16;;;;;;;8.00;4.60;;;6.20;99.90;;;;;;5051796;28;20048;-76
2023/03/14 08:21:45;;;;;;;6.13;4.07;;;6.20;99.90;;;;;;5043566;28;20050;-75
2023/03/14 08:24:12;;;;;;;6.97;4.75;;;6.30;99.90;;;;;;5046907;28;20073;-75
2023/03/14 08:26:40;;;;;;;6.40;3.88;;;6.40;99.90;;;;;;5036300;28;20042;-76
2023/03/14 08:29:08;;;;;;;5.60;4.68;;;6.40;99.90;;;;;;5041950;28;20045;-75
2023/03/14 08:31:35;;;;;;;7.55;4.50;;;6.40;99.90;;;;;;5033492;28;20136;-75
2023/03/14 08:34:04;;;;;;;11.60;5.60;;;6.40;99.90;;;;;;5052992;28;20045;-75
2023/03/14 08:36:34;;;;;;;11.23;5.22;;;6.40;99.90;;;;;;5035767;28;20053;-75
2023/03/14 08:39:07;;;;;;;10.45;5.20;;;6.40;99.90;;;;;;5033582;28;20057;-75
2023/03/14 08:41:39;;;;;;;10.77;4.70;;;6.50;99.90;;;;;;5065610;28;20470;-75
2023/03/14 08:44:07;;;;;;;7.47;4.22;;;6.40;99.90;;;;;;5042064;28;20165;-75
2023/03/14 08:46:35;;;;;;;7.32;4.75;;;6.40;99.90;;;;;;5033162;28;20073;-75
2023/03/14 08:49:02;;;;;;;7.30;5.15;;;6.50;99.90;;;;;;5047848;28;20057;-76
2023/03/14 08:51:30;;;;;;;7.68;5.25;;;6.60;99.90;;;;;;5033041;28;20403;-76
2023/03/14 08:53:58;;;;;;;11.38;4.95;;;6.80;99.90;;;;;;5036041;28;20061;-77
2023/03/14 08:56:27;;;;;;;8.52;4.72;;;6.80;99.90;;;;;;5032904;28;20045;-76
2023/03/14 08:58:55;;;;;;;9.95;5.55;;;6.90;99.90;;;;;;5045098;28;20083;-75
2023/03/14 09:01:25;;;;;;;10.30;5.45;;;6.90;99.90;;;;;;5045570;28;20055;-75
2023/03/14 09:03:52;;;;;;;9.25;5.70;;;6.90;99.90;;;;;;5049635;28;20079;-76
2023/03/14 09:06:20;;;;;;;8.85;4.82;;;7.00;99.90;;;;;;5031135;28;20135;-77
2023/03/14 09:08:48;;;;;;;8.05;5.05;;;7.20;99.90;;;;;;5041209;28;20053;-80
2023/03/14 09:11:18;;;;;;;11.57;6.07;;;7.10;99.90;;;;;;5055408;28;20045;-80
2023/03/14 09:13:48;;;;;;;11.05;5.53;;;7.10;99.90;;;;;;5040265;28;20093;-79
2023/03/14 09:16:16;;;;;;;12.82;5.78;;;7.20;99.90;;;;;;5038756;28;20045;-78
2023/03/14 09:18:43;;;;;;;12.88;5.63;;;7.30;99.90;;;;;;5038636;28;20497;-78
2023/03/14 09:21:11;;;;;;;14.38;6.10;;;7.30;99.90;;;;;;5037218;28;20136;-78
2023/03/14 09:23:40;;;;;;;14.80;6.93;;;7.40;99.90;;;;;;5039793;28;20048;-77
2023/03/14 09:26:08;;;;;;;10.65;5.63;;;7.50;99.90;;;;;;5038356;28;20056;-77
2023/03/14 09:28:36;;;;;;;12.77;6.00;;;7.50;99.90;;;;;;5036214;28;20052;-77
2023/03/14 09:31:10;;;;;;;11.50;5.55;;;7.50;99.90;;;;;;5051269;28;20075;-84
2023/03/14 09:33:38;;;;;;;11.45;5.88;;;7.60;99.90;;;;;;5045078;28;20049;-84
2023/03/14 09:36:07;;;;;;;8.45;4.90;;;7.60;99.90;;;;;;5046085;28;20561;-79
2023/03/14 09:38:35;;;;;;;14.73;6.68;;;7.70;99.90;;;;;;5036458;28;20056;-79
2023/03/14 09:41:14;;;;;;;15.00;6.40;;;7.70;99.90;;;;;;5051864;28;20115;-80
2023/03/14 09:43:42;;;;;;;10.68;6.30;;;7.70;99.90;;;;;;5051654;28;20049;-78
2023/03/14 09:46:13;;;;;;;14.68;6.55;;;7.70;99.90;;;;;;5066814;28;20140;-80
2023/03/14 09:48:41;;;;;;;12.55;7.93;;;7.60;99.90;;;;;;5029039;28;20053;-78
2023/03/14 09:51:15;;;;;;;12.95;6.97;;;7.70;99.90;;;;;;5030745;28;20072;-78
2023/03/14 09:53:47;;;;;;;11.93;5.78;;;7.60;99.90;;;;;;5047177;28;20054;-77
2023/03/14 09:56:19;;;;;;;13.30;7.05;;;7.70;99.90;;;;;;5035519;28;20049;-79
2023/03/14 09:58:53;;;;;;;11.75;6.10;;;7.80;99.90;;;;;;5052910;28;20216;-78
2023/03/14 10:01:26;;;;;;;14.88;7.55;;;7.80;99.90;;;;;;5036550;28;20144;-79
2023/03/14 10:03:57;;;;;;;17.20;7.53;;;7.80;99.90;;;;;;5039925;28;20050;-79
2023/03/14 10:06:29;;;;;;;24.27;11.20;;;7.90;99.90;;;;;;5055770;28;20045;-79
2023/03/14 10:08:57;;;;;;;19.38;8.43;;;8.00;99.90;;;;;;5040886;28;20069;-79
2023/03/14 10:11:26;;;;;;;17.30;8.35;;;8.10;99.90;;;;;;5044319;28;20095;-79
2023/03/14 10:14:07;;;;;;;20.25;9.52;;;8.20;99.90;;;;;;5055296;28;20042;-78
2023/03/14 10:16:42;;;;;;;14.55;8.85;;;8.20;99.90;;;;;;5022143;28;20080;-79
2023/03/14 10:19:13;;;;;;;20.60;9.50;;;;;;;;;;5036464;28;20053;-78
2023/03/14 10:21:43;;;;;;;14.05;6.35;;;8.60;99.90;;;;;;5046088;28;20048;-78
2023/03/14 10:24:21;;;;;;;17.50;7.35;;;8.80;99.90;;;;;;5042924;28;20501;-77
2023/03/14 10:26:55;;;;;;;11.32;7.35;;;9.00;99.90;;;;;;5041686;28;20080;-78
2023/03/14 10:29:23;;;;;;;20.85;9.23;;;9.20;99.90;;;;;;5030105;28;20483;-78
2023/03/14 10:32:00;;;;;;;24.75;11.35;;;9.30;99.90;;;;;;5048535;28;20060;-78
2023/03/14 10:34:31;;;;;;;22.23;11.25;;;9.20;99.90;;;;;;5042206;28;20046;-78
2023/03/14 10:37:07;;;;;;;17.73;8.15;;;9.20;99.90;;;;;;5046365;28;20562;-78
2023/03/14 10:39:43;;;;;;;20.27;10.75;;;9.20;99.90;;;;;;5050492;28;20481;-78
2023/03/14 10:42:21;;;;;;;19.42;9.07;;;9.10;99.90;;;;;;5049337;28;20036;-80
2023/03/14 10:44:56;;;;;;;18.75;8.93;;;9.00;99.90;;;;;;5046982;28;20061;-77
2023/03/14 10:47:29;;;;;;;17.48;8.80;;;8.80;99.90;;;;;;5034363;28;20045;-78
2023/03/14 10:49:58;;;;;;;16.67;7.00;;;8.80;99.90;;;;;;5046166;28;20053;-79
2023/03/14 10:52:29;;;;;;;18.92;9.20;;;8.70;99.90;;;;;;5060927;28;20049;-79
2023/03/14 10:55:00;;;;;;;13.80;7.03;;;8.70;99.90;;;;;;5049507;28;20044;-79
2023/03/14 10:57:28;;;;;;;12.50;6.60;;;8.70;99.90;;;;;;5047378;28;20120;-78
2023/03/14 10:59:57;;;;;;;12.60;7.30;;;8.70;99.90;;;;;;5034892;28;20138;-79
2023/03/14 11:02:44;;;;;;;14.90;7.20;;;8.80;99.90;;;;;;5031075;28;20107;-78
2023/03/14 11:05:25;;;;;;;10.73;5.63;;;9.00;99.90;;;;;;5049415;28;20422;-87
2023/03/14 11:07:55;;;;;;;10.80;5.95;;;9.20;99.90;;;;;;5049592;28;20147;-87
2023/03/14 11:10:33;;;;;;;12.95;6.20;;;9.40;99.90;;;;;;5038157;28;20084;-85
2023/03/14 11:13:13;;;;;;;15.23;5.97;;;9.30;99.90;;;;;;5039402;28;20058;-88
2023/03/14 11:15:50;;;;;;;12.65;6.38;;;9.10;99.90;;;;;;5049657;28;20049;-85
2023/03/14 11:19:01;;;;;;;13.95;6.35;;;9.00;99.90;;;;;;5049325;28;20083;-85
2023/03/14 11:21:37;;;;;;;16.83;6.97;;;9.00;99.90;;;;;;5017706;28;20060;-86
2023/03/14 11:24:34;;;;;;;15.95;8.05;;;9.10;99.90;;;;;;5051346;28;20095;-88
2023/03/14 11:27:17;;;;;;;14.75;7.60;;;9.00;99.90;;;;;;5045529;28;20045;-88
2023/03/14 11:29:52;;;;;;;;;;;9.00;99.90;;;;;;5036733;28;20622;-88
2023/03/14 11:32:37;;;;;;;15.27;7.18;;;8.90;99.90;;;;;;5049354;28;19929;-87
2023/03/14 11:35:18;;;;;;;13.05;7.03;;;8.80;99.90;;;;;;5062261;28;20079;-85
2023/03/14 11:37:54;;;;;;;15.52;6.53;;;8.70;99.90;;;;;;5047389;28;20498;-86
2023/03/14 11:40:24;;;;;;;13.07;6.22;;;8.70;99.90;;;;;;5037365;28;20110;-86
2023/03/14 11:43:01;;;;;;;11.52;6.35;;;8.60;99.90;;;;;;5049460;28;20553;-84
2023/03/14 11:45:36;;;;;;;13.25;6.30;;;8.60;99.90;;;;;;5052554;28;20421;-87
2023/03/14 11:48:20;;;;;;;8.73;5.13;;;8.60;99.90;;;;;;5051426;28;20248;-87
2023/03/14 11:50:56;;;;;;;11.75;6.60;;;8.70;99.90;;;;;;5060934;28;20160;-81
2023/03/14 11:53:40;;;;;;;10.07;6.35;;;8.70;99.90;;;;;;5042946;28;20489;-79
2023/03/14 11:56:15;;;;;;;16.48;6.85;;;8.80;99.90;;;;;;5050611;28;20122;-79
2023/03/14 11:58:52;;;;;;;16.10;8.27;;;8.70;99.90;;;;;;5039446;28;20144;-78
2023/03/14 12:01:23;;;;;;;16.95;7.55;;;8.70;99.90;;;;;;5048943;28;20095;-78
2023/03/14 12:04:01;;;;;;;13.68;6.57;;;8.70;99.90;;;;;;5049784;28;20144;-87
2023/03/14 12:06:39;;;;;;;14.27;7.20;;;8.70;99.90;;;;;;5042137;28;20079;-87
2023/03/14 12:09:08;;;;;;;12.82;6.97;;;8.60;99.90;;;;;;5049422;28;20513;-85
2023/03/14 12:11:41;;;;;;;15.10;6.82;;;8.60;99.90;;;;;;5048818;28;20049;-79
2023/03/14 12:14:22;;;;;;;14.05;6.47;;;8.60;99.90;;;;;;5039652;28;20057;-80
2023/03/14 12:16:56;;;;;;;10.85;6.50;;;8.60;99.90;;;;;;5048362;28;20052;-78
2023/03/14 12:19:37;;;;;;;10.88;6.30;;;8.60;99.90;;;;;;5052267;28;20057;-79
2023/03/14 12:22:31;;;;;;;16.70;7.95;;;8.60;99.90;;;;;;5050679;28;20049;-79
2023/03/14 12:25:05;;;;;;;17.13;8.45;;;8.70;99.90;;;;;;5037670;28;20505;-79
2023/03/14 12:28:20;;;;;;;16.13;7.95;;;8.70;99.90;;;;;;5049082;28;20049;-85
2023/03/14 12:30:48;;;;;;;14.30;6.95;;;8.70;99.90;;;;;;5041764;28;20057;-86
2023/03/14 12:33:35;;;;;;;11.02;6.65;;;8.80;99.90;;;;;;5052495;28;20553;-84
2023/03/14 12:36:21;;;;;;;15.88;6.20;;;8.80;99.90;;;;;;5035681;28;20092;-88
2023/03/14 12:39:04;;;;;;;14.15;6.78;;;9.00;99.90;;;;;;5049093;28;20053;-87
2023/03/14 12:41:41;;;;;;;16.27;7.35;;;9.10;99.90;;;;;;5047669;28;20139;-77
2023/03/14 12:44:43;;;;;;;15.07;7.78;;;9.30;99.90;;;;;;5043596;28;20053;-77
2023/03/14 12:47:55;;;;;;;15.25;7.55;;;9.50;99.90;;;;;;5062590;28;20127;-81
2023/03/14 12:50:32;;;;;;;14.43;7.10;;;9.70;99.90;;;;;;5043675;28;20422;-82
2023/03/14 12:53:43;;;;;;;14.25;7.75;;;9.60;99.90;;;;;;5051749;28;20045;-81
2023/03/14 12:56:27;;;;;;;14.60;8.52;;;9.40;99.90;;;;;;5046182;28;20060;-82
2023/03/14 12:59:18;;;;;;;18.20;8.82;;;9.20;99.90;;;;;;5040779;28;20061;-81
2023/03/14 13:01:55;;;;;;;15.77;7.43;;;9.00;99.90;;;;;;5031668;28;20131;-81
2023/03/14 13:04:33;;;;;;;15.85;8.30;;;9.10;99.90;;;;;;5046160;28;20132;-82
2023/03/14 13:07:02;;;;;;;20.27;7.55;;;9.10;99.90;;;;;;5051689;28;20056;-79
2023/03/14 13:10:05;;;;;;;12.63;7.47;;;9.20;99.90;;;;;;5033661;28;20552;-80
2023/03/14 13:12:41;;;;;;;14.60;7.80;;;9.40;99.90;;;;;;5031949;28;20171;-80
2023/03/14 13:15:28;;;;;;;13.55;7.38;;;9.50;99.90;;;;;;5032919;28;20049;-80
2023/03/14 13:18:09;;;;;;;18.25;8.23;;;9.50;99.90;;;;;;5040609;28;20055;-83
2023/03/14 13:20:41;;;;;;;15.27;8.15;;;9.50;99.90;;;;;;5032043;28;20555;-79
2023/03/14 13:23:23;;;;;;;16.50;8.02;;;9.30;99.90;;;;;;5049672;28;20529;-82
2023/03/14 13:25:51;;;;;;;19.42;9.57;;;9.30;99.90;;;;;;5042128;28;20049;-81
2023/03/14 13:28:21;;;;;;;20.30;8.48;;;9.10;99.90;;;;;;5034294;28;20168;-81
2023/03/14 13:30:59;;;;;;;16.60;7.32;;;9.10;99.90;;;;;;5047697;28;20053;-81